createdAt,value
2023-01-09T00:02:03.587Z,-6.78
2023-01-09T00:04:30.542Z,-6.84
2023-01-09T00:06:57.178Z,-6.92
2023-01-09T00:09:24.533Z,-6.96
2023-01-09T00:11:54.269Z,-6.99
2023-01-09T00:14:22.370Z,-7.03
2023-01-09T00:16:49.286Z,-7.05
2023-01-09T00:19:15.928Z,-6.92
2023-01-09T00:21:42.506Z,-6.75
2023-01-09T00:24:09.728Z,-6.66
2023-01-09T00:26:37.140Z,-6.68
2023-01-09T00:29:04.684Z,-6.71
2023-01-09T00:31:31.423Z,-6.73
2023-01-09T00:34:00.242Z,-6.75
2023-01-09T00:36:27.651Z,-6.79
2023-01-09T00:38:54.336Z,-6.80
2023-01-09T00:41:32.802Z,-6.81
2023-01-09T00:44:03.502Z,-6.84
2023-01-09T00:46:38.708Z,-6.84
2023-01-09T00:49:05.387Z,-6.66
2023-01-09T00:51:32.421Z,-6.49
2023-01-09T00:53:59.252Z,-6.41
2023-01-09T00:56:25.985Z,-6.45
2023-01-09T00:58:52.746Z,-6.48
2023-01-09T01:01:22.661Z,-6.52
2023-01-09T01:03:49.868Z,-6.58
2023-01-09T01:06:35.273Z,-6.62
2023-01-09T01:09:01.796Z,-6.65
2023-01-09T01:11:29.067Z,-6.68
2023-01-09T01:13:55.892Z,-6.70
2023-01-09T01:16:22.625Z,-6.69
2023-01-09T01:18:50.027Z,-6.56
2023-01-09T01:21:16.752Z,-6.36
2023-01-09T01:23:43.623Z,-6.28
2023-01-09T01:26:13.459Z,-6.28
2023-01-09T01:28:40.602Z,-6.29
2023-01-09T01:31:07.645Z,-6.29
2023-01-09T01:33:34.653Z,-6.29
2023-01-09T01:36:06.098Z,-6.31
2023-01-09T01:38:33.653Z,-6.33
2023-01-09T01:41:01.636Z,-6.35
2023-01-09T01:43:46.980Z,-6.40
2023-01-09T01:46:13.683Z,-6.46
2023-01-09T01:48:40.352Z,-6.55
2023-01-09T01:51:07.135Z,-6.57
2023-01-09T01:53:39.176Z,-6.40
2023-01-09T01:56:09.862Z,-6.26
2023-01-09T01:58:56.370Z,-6.20
2023-01-09T02:01:23.590Z,-6.21
2023-01-09T02:03:52.344Z,-6.22
2023-01-09T02:06:18.945Z,-6.26
2023-01-09T02:08:45.918Z,-6.29
2023-01-09T02:11:13.842Z,-6.33
2023-01-09T02:13:40.501Z,-6.35
2023-01-09T02:16:24.532Z,-6.40
2023-01-09T02:19:16.391Z,-6.43
2023-01-09T02:22:00.239Z,-6.49
2023-01-09T02:25:08.870Z,-6.55
2023-01-09T02:28:01.845Z,-6.41
2023-01-09T02:30:44.225Z,-6.24
2023-01-09T02:33:33.058Z,-6.19
2023-01-09T02:36:11.938Z,-6.25
2023-01-09T02:38:57.346Z,-6.32
2023-01-09T02:41:37.939Z,-6.40
2023-01-09T02:44:25.173Z,-6.47
2023-01-09T02:47:25.648Z,-6.55
2023-01-09T02:49:57.474Z,-6.62
2023-01-09T02:52:51.022Z,-6.67
2023-01-09T02:55:39.167Z,-6.68
2023-01-09T02:58:10.023Z,-6.52
2023-01-09T03:01:15.165Z,-6.40
2023-01-09T03:03:53.043Z,-6.36
2023-01-09T03:06:44.438Z,-6.38
2023-01-09T03:09:16.570Z,-6.45
2023-01-09T03:11:46.042Z,-6.57
2023-01-09T03:14:16.396Z,-6.63
2023-01-09T03:16:45.387Z,-6.68
2023-01-09T03:19:20.058Z,-6.73
2023-01-09T03:21:47.002Z,-6.74
2023-01-09T03:24:16.152Z,-6.59
2023-01-09T03:26:44.865Z,-6.50
2023-01-09T03:29:11.592Z,-6.53
2023-01-09T03:31:38.213Z,-6.56
2023-01-09T03:34:05.250Z,-6.60
2023-01-09T03:36:32.120Z,-6.64
2023-01-09T03:38:58.709Z,-6.70
2023-01-09T03:41:25.375Z,-6.62
2023-01-09T03:43:52.739Z,-6.49
2023-01-09T03:46:21.932Z,-6.51
2023-01-09T03:48:48.504Z,-6.56
2023-01-09T03:51:15.277Z,-6.60
2023-01-09T03:53:43.496Z,-6.65
2023-01-09T03:56:10.766Z,-6.66
2023-01-09T03:58:37.472Z,-6.57
2023-01-09T04:01:12.081Z,-6.45
2023-01-09T04:03:39.265Z,-6.47
2023-01-09T04:06:07.477Z,-6.51
2023-01-09T04:08:34.378Z,-6.54
2023-01-09T04:11:01.003Z,-6.58
2023-01-09T04:13:29.881Z,-6.60
2023-01-09T04:15:56.431Z,-6.48
2023-01-09T04:18:23.458Z,-6.44
2023-01-09T04:20:50.132Z,-6.51
2023-01-09T04:23:16.805Z,-6.54
2023-01-09T04:25:43.357Z,-6.57
2023-01-09T04:28:10.125Z,-6.57
2023-01-09T04:30:37.772Z,-6.50
2023-01-09T04:33:04.566Z,-6.49
2023-01-09T04:35:31.595Z,-6.54
2023-01-09T04:38:01.242Z,-6.61
2023-01-09T04:40:27.818Z,-6.65
2023-01-09T04:42:54.410Z,-6.60
2023-01-09T04:45:21.099Z,-6.46
2023-01-09T04:47:48.350Z,-6.44
2023-01-09T04:50:17.030Z,-6.48
2023-01-09T04:52:43.712Z,-6.52
2023-01-09T04:55:10.853Z,-6.55
2023-01-09T04:57:37.801Z,-6.47
2023-01-09T05:00:09.377Z,-6.40
2023-01-09T05:02:36.332Z,-6.45
2023-01-09T05:05:04.984Z,-6.52
2023-01-09T05:08:47.262Z,-6.54
2023-01-09T05:11:14.237Z,-6.42
2023-01-09T05:13:41.178Z,-6.30
2023-01-09T05:16:09.012Z,-6.31
2023-01-09T05:18:37.921Z,-6.35
2023-01-09T05:21:05.223Z,-6.38
2023-01-09T05:23:32.205Z,-6.37
2023-01-09T05:25:59.284Z,-6.24
2023-01-09T05:28:26.136Z,-6.11
2023-01-09T05:30:53.054Z,-6.14
2023-01-09T05:33:19.855Z,-6.19
2023-01-09T05:35:46.652Z,-6.24
2023-01-09T05:38:13.500Z,-6.29
2023-01-09T05:40:40.838Z,-6.21
2023-01-09T05:43:07.807Z,-6.16
2023-01-09T05:45:35.095Z,-6.21
2023-01-09T05:48:02.071Z,-6.24
2023-01-09T05:50:29.140Z,-6.26
2023-01-09T05:52:56.013Z,-6.25
2023-01-09T05:55:23.189Z,-6.08
2023-01-09T05:57:49.960Z,-6.00
2023-01-09T06:00:19.946Z,-6.01
2023-01-09T06:02:46.741Z,-6.04
2023-01-09T06:05:13.612Z,-6.07
2023-01-09T06:07:40.886Z,-6.06
2023-01-09T06:10:09.861Z,-5.91
2023-01-09T06:12:36.752Z,-5.81
2023-01-09T06:15:03.754Z,-5.84
2023-01-09T06:17:30.597Z,-5.86
2023-01-09T06:19:57.600Z,-5.91
2023-01-09T06:22:24.385Z,-5.94
2023-01-09T06:24:51.247Z,-5.82
2023-01-09T06:27:18.395Z,-5.71
2023-01-09T06:29:45.172Z,-5.70
2023-01-09T06:32:12.000Z,-5.74
2023-01-09T06:34:38.780Z,-5.81
2023-01-09T06:37:05.657Z,-5.85
2023-01-09T06:39:32.387Z,-5.82
2023-01-09T06:41:59.181Z,-5.68
2023-01-09T06:44:25.946Z,-5.60
2023-01-09T06:46:52.792Z,-5.64
2023-01-09T06:49:25.554Z,-5.69
2023-01-09T06:51:52.536Z,-5.74
2023-01-09T06:54:19.654Z,-5.77
2023-01-09T06:56:46.857Z,-5.66
2023-01-09T06:59:13.725Z,-5.60
2023-01-09T07:01:40.776Z,-5.63
2023-01-09T07:04:09.163Z,-5.68
2023-01-09T07:06:36.940Z,-5.73
2023-01-09T07:09:06.018Z,-5.64
2023-01-09T07:11:33.183Z,-5.57
2023-01-09T07:14:00.005Z,-5.60
2023-01-09T07:16:26.928Z,-5.64
2023-01-09T07:18:54.925Z,-5.66
2023-01-09T07:21:22.003Z,-5.70
2023-01-09T07:23:49.850Z,-5.59
2023-01-09T07:26:16.719Z,-5.51
2023-01-09T07:28:43.567Z,-5.54
2023-01-09T07:31:10.494Z,-5.60
2023-01-09T07:33:37.256Z,-5.64
2023-01-09T07:36:04.970Z,-5.60
2023-01-09T07:38:33.122Z,-5.51
2023-01-09T07:40:59.912Z,-5.52
2023-01-09T07:43:26.932Z,-5.60
2023-01-09T07:45:53.957Z,-5.63
2023-01-09T07:48:20.998Z,-5.63
2023-01-09T07:50:47.961Z,-5.50
2023-01-09T07:53:14.701Z,-5.42
2023-01-09T07:55:43.257Z,-5.43
2023-01-09T07:58:10.098Z,-5.46
2023-01-09T08:00:37.084Z,-5.49
2023-01-09T08:03:04.484Z,-5.41
2023-01-09T08:05:31.639Z,-5.29
2023-01-09T08:07:58.574Z,-5.30
2023-01-09T08:10:25.500Z,-5.33
2023-01-09T08:12:52.426Z,-5.37
2023-01-09T08:15:20.089Z,-5.37
2023-01-09T08:17:47.125Z,-5.25
2023-01-09T08:20:15.268Z,-5.21
2023-01-09T08:22:42.597Z,-5.26
2023-01-09T08:25:12.273Z,-5.32
2023-01-09T08:27:39.627Z,-5.35
2023-01-09T08:30:07.252Z,-5.22
2023-01-09T08:32:34.109Z,-5.20
2023-01-09T08:35:00.950Z,-5.25
2023-01-09T08:37:27.811Z,-5.29
2023-01-09T08:39:54.560Z,-5.28
2023-01-09T08:42:40.117Z,-5.15
2023-01-09T08:45:26.609Z,-5.08
2023-01-09T08:47:53.454Z,-5.14
2023-01-09T08:50:20.303Z,-5.22
2023-01-09T08:52:47.189Z,-5.24
2023-01-09T08:55:14.117Z,-5.09
2023-01-09T08:57:49.130Z,-5.03
2023-01-09T09:00:17.469Z,-5.06
2023-01-09T09:02:44.355Z,-5.10
2023-01-09T09:05:11.437Z,-5.10
2023-01-09T09:07:38.887Z,-4.99
2023-01-09T09:10:06.321Z,-4.90
2023-01-09T09:12:33.238Z,-4.90
2023-01-09T09:15:18.841Z,-4.95
2023-01-09T09:17:45.971Z,-4.98
2023-01-09T09:20:12.824Z,-4.89
2023-01-09T09:22:39.763Z,-4.80
2023-01-09T09:25:07.134Z,-4.84
2023-01-09T09:27:34.067Z,-4.90
2023-01-09T09:30:00.842Z,-4.93
2023-01-09T09:32:27.609Z,-4.80
2023-01-09T09:34:54.453Z,-4.70
2023-01-09T09:37:21.252Z,-4.73
2023-01-09T09:39:48.060Z,-4.77
2023-01-09T09:42:37.019Z,-4.78
2023-01-09T09:45:13.500Z,-4.67
2023-01-09T09:47:46.462Z,-4.60
2023-01-09T09:50:20.242Z,-4.64
2023-01-09T09:52:55.262Z,-4.66
2023-01-09T09:55:25.636Z,-4.65
2023-01-09T09:57:52.497Z,-4.53
2023-01-09T10:00:21.546Z,-4.47
2023-01-09T10:02:52.269Z,-4.53
2023-01-09T10:05:20.781Z,-4.59
2023-01-09T10:07:51.133Z,-4.59
2023-01-09T10:10:32.431Z,-4.45
2023-01-09T10:12:59.675Z,-4.36
2023-01-09T10:15:30.086Z,-4.37
2023-01-09T10:18:03.304Z,-4.38
2023-01-09T10:20:33.140Z,-4.39
2023-01-09T10:23:16.098Z,-4.27
2023-01-09T10:25:51.119Z,-4.20
2023-01-09T10:28:22.304Z,-4.22
2023-01-09T10:30:54.526Z,-4.27
2023-01-09T10:33:40.849Z,-4.20
2023-01-09T10:36:26.040Z,-4.07
2023-01-09T10:38:54.067Z,-4.07
2023-01-09T10:42:00.040Z,-4.08
2023-01-09T10:44:38.477Z,-4.07
2023-01-09T10:47:18.950Z,-3.95
2023-01-09T10:49:46.554Z,-3.89
2023-01-09T10:52:18.461Z,-3.92
2023-01-09T10:54:55.187Z,-3.98
2023-01-09T10:57:38.048Z,-3.93
2023-01-09T11:00:06.054Z,-3.86
2023-01-09T11:02:34.567Z,-3.90
2023-01-09T11:05:01.491Z,-3.95
2023-01-09T11:07:38.059Z,-3.99
2023-01-09T11:10:08.298Z,-3.91
2023-01-09T11:12:35.965Z,-3.84
2023-01-09T11:15:21.158Z,-3.89
2023-01-09T11:17:47.990Z,-3.95
2023-01-09T11:20:27.900Z,-3.92
2023-01-09T11:22:58.418Z,-3.80
2023-01-09T11:25:28.754Z,-3.80
2023-01-09T11:28:06.343Z,-3.86
2023-01-09T11:30:36.861Z,-3.88
2023-01-09T11:33:14.710Z,-3.75
2023-01-09T11:35:53.056Z,-3.68
2023-01-09T11:38:19.856Z,-3.75
2023-01-09T11:40:50.923Z,-3.79
2023-01-09T11:43:33.138Z,-3.69
2023-01-09T11:46:05.164Z,-3.59
2023-01-09T11:48:34.727Z,-3.64
2023-01-09T11:51:04.102Z,-3.68
2023-01-09T11:53:45.913Z,-3.63
2023-01-09T11:56:12.634Z,-3.54
2023-01-09T11:58:39.455Z,-3.58
2023-01-09T12:01:41.957Z,-3.62
2023-01-09T12:04:19.942Z,-3.65
2023-01-09T12:07:06.952Z,-3.56
2023-01-09T12:09:45.920Z,-3.58
2023-01-09T12:12:42.042Z,-3.65
2023-01-09T12:15:46.833Z,-3.70
2023-01-09T12:18:24.058Z,-3.59
2023-01-09T12:21:20.205Z,-3.56
2023-01-09T12:23:53.071Z,-3.62
2023-01-09T12:26:24.814Z,-3.66
2023-01-09T12:29:13.864Z,-3.56
2023-01-09T12:31:40.782Z,-3.49
2023-01-09T12:34:21.882Z,-3.54
2023-01-09T12:37:06.232Z,-3.61
2023-01-09T12:39:52.680Z,-3.56
2023-01-09T12:42:28.685Z,-3.49
2023-01-09T12:44:57.204Z,-3.56
2023-01-09T12:47:46.363Z,-3.64
2023-01-09T12:50:28.002Z,-3.60
2023-01-09T12:53:17.204Z,-3.51
2023-01-09T12:55:47.810Z,-3.53
2023-01-09T12:58:35.985Z,-3.57
2023-01-09T13:01:04.536Z,-3.54
2023-01-09T13:03:49.428Z,-3.44
2023-01-09T13:06:17.601Z,-3.45
2023-01-09T13:09:27.139Z,-3.51
2023-01-09T13:12:06.581Z,-3.53
2023-01-09T13:14:44.295Z,-3.40
2023-01-09T13:17:55.304Z,-3.37
2023-01-09T13:20:28.399Z,-3.39
2023-01-09T13:22:55.417Z,-3.41
2023-01-09T13:25:43.357Z,-3.33
2023-01-09T13:28:28.193Z,-3.31
2023-01-09T13:31:17.843Z,-3.40
2023-01-09T13:33:55.928Z,-3.43
2023-01-09T13:36:35.939Z,-3.34
2023-01-09T13:39:02.912Z,-3.26
2023-01-09T13:41:48.498Z,-3.29
2023-01-09T13:44:18.442Z,-3.32
2023-01-09T13:46:46.545Z,-3.33
2023-01-09T13:49:35.321Z,-3.23
2023-01-09T13:52:04.783Z,-3.15
2023-01-09T13:54:47.221Z,-3.19
2023-01-09T13:57:20.544Z,-3.22
2023-01-09T13:59:48.550Z,-3.20
2023-01-09T14:02:34.204Z,-3.11
2023-01-09T14:05:05.426Z,-3.11
2023-01-09T14:07:33.404Z,-3.15
2023-01-09T14:10:02.681Z,-3.14
2023-01-09T14:12:31.431Z,-3.04
2023-01-09T14:14:59.721Z,-3.01
2023-01-09T14:17:35.024Z,-3.04
2023-01-09T14:20:04.939Z,-3.06
2023-01-09T14:22:42.429Z,-3.01
2023-01-09T14:27:56.021Z,-2.96
2023-01-09T14:30:25.905Z,-2.99
2023-01-09T14:33:27.748Z,-2.88
2023-01-09T14:36:33.405Z,-2.86
2023-01-09T14:39:00.972Z,-2.92
2023-01-09T14:42:03.888Z,-2.92
2023-01-09T14:44:35.093Z,-2.77
2023-01-09T14:47:07.031Z,-2.74
2023-01-09T14:49:35.867Z,-2.77
2023-01-09T14:52:34.555Z,-2.79
2023-01-09T14:55:03.714Z,-2.67
2023-01-09T14:57:32.553Z,-2.60
2023-01-09T15:00:01.111Z,-2.64
2023-01-09T15:02:31.325Z,-2.68
2023-01-09T15:05:01.107Z,-2.66
2023-01-09T15:07:34.460Z,-2.54
2023-01-09T15:10:02.511Z,-2.48
2023-01-09T15:12:29.515Z,-2.50
2023-01-09T15:14:59.200Z,-2.54
2023-01-09T15:17:31.079Z,-2.47
2023-01-09T15:20:02.711Z,-2.40
2023-01-09T15:22:31.225Z,-2.41
2023-01-09T15:24:59.134Z,-2.44
2023-01-09T15:27:26.133Z,-2.42
2023-01-09T15:29:53.372Z,-2.32
2023-01-09T15:32:27.501Z,-2.30
2023-01-09T15:34:55.367Z,-2.35
2023-01-09T15:37:38.827Z,-2.39
2023-01-09T15:40:08.018Z,-2.29
2023-01-09T15:42:57.517Z,-2.22
2023-01-09T15:45:37.761Z,-2.24
2023-01-09T15:48:26.767Z,-2.29
2023-01-09T15:51:02.035Z,-2.29
2023-01-09T15:53:29.543Z,-2.16
2023-01-09T15:56:19.799Z,-2.10
2023-01-09T15:58:48.063Z,-2.12
2023-01-09T16:01:21.236Z,-2.17
2023-01-09T16:03:48.885Z,-2.12
2023-01-09T16:06:25.796Z,-2.02
2023-01-09T16:08:57.294Z,-2.02
2023-01-09T16:11:36.230Z,-2.10
2023-01-09T16:14:23.495Z,-2.11
2023-01-09T16:16:51.302Z,-2.01
2023-01-09T16:19:33.023Z,-1.97
2023-01-09T16:22:01.725Z,-2.03
2023-01-09T16:24:43.008Z,-2.08
2023-01-09T16:27:20.655Z,-2.09
2023-01-09T16:29:50.495Z,-1.98
2023-01-09T16:32:32.336Z,-1.92
2023-01-09T16:35:04.692Z,-1.96
2023-01-09T16:37:33.805Z,-2.01
2023-01-09T16:40:22.945Z,-1.95
2023-01-09T16:43:11.231Z,-1.87
2023-01-09T16:45:41.147Z,-1.91
2023-01-09T16:48:16.787Z,-1.96
2023-01-09T16:50:45.232Z,-1.93
2023-01-09T16:53:18.805Z,-1.82
2023-01-09T16:55:46.123Z,-1.81
2023-01-09T16:58:43.111Z,-1.85
2023-01-09T17:01:13.747Z,-1.91
2023-01-09T17:03:43.811Z,-1.91
2023-01-09T17:06:32.179Z,-1.79
2023-01-09T17:09:00.811Z,-1.76
2023-01-09T17:11:31.870Z,-1.81
2023-01-09T17:14:00.669Z,-1.86
2023-01-09T17:16:28.578Z,-1.89
2023-01-09T17:18:56.326Z,-1.77
2023-01-09T17:21:25.087Z,-1.69
2023-01-09T17:55:36.282Z,-1.91
2023-01-09T18:07:37.369Z,-1.81
2023-01-09T18:11:20.661Z,-1.86
2023-01-09T18:14:07.808Z,-1.89
2023-01-09T18:16:38.386Z,-1.74
2023-01-09T18:19:46.139Z,-1.73
2023-01-09T18:22:26.843Z,-1.80
2023-01-09T18:25:17.238Z,-1.82
2023-01-09T18:28:04.108Z,-1.81
2023-01-09T18:30:55.696Z,-1.69
2023-01-09T18:33:46.847Z,-1.64
2023-01-09T18:36:18.741Z,-1.68
2023-01-09T18:39:12.888Z,-1.72
2023-01-09T18:41:54.067Z,-1.73
2023-01-09T18:44:29.671Z,-1.62
2023-01-09T18:46:56.775Z,-1.59
2023-01-09T18:49:23.371Z,-1.63
2023-01-09T18:51:50.307Z,-1.67
2023-01-09T18:54:16.851Z,-1.71
2023-01-09T18:56:46.446Z,-1.64
2023-01-09T18:59:13.214Z,-1.53
2023-01-09T19:01:40.024Z,-1.54
2023-01-09T19:04:07.201Z,-1.58
2023-01-09T19:06:33.955Z,-1.63
2023-01-09T19:09:01.098Z,-1.67
2023-01-09T19:11:28.263Z,-1.69
2023-01-09T19:13:56.712Z,-1.66
2023-01-09T19:16:23.845Z,-1.52
2023-01-09T19:18:50.575Z,-1.49
2023-01-09T19:21:19.423Z,-1.52
2023-01-09T19:23:46.556Z,-1.57
2023-01-09T19:26:20.845Z,-1.62
2023-01-09T19:28:47.686Z,-1.65
2023-01-09T19:31:15.488Z,-1.70
2023-01-09T19:33:43.078Z,-1.66
2023-01-09T19:36:09.985Z,-1.54
2023-01-09T19:38:37.752Z,-1.56
2023-01-09T19:41:13.700Z,-1.60
2023-01-09T19:43:40.889Z,-1.64
2023-01-09T19:46:09.116Z,-1.67
2023-01-09T19:48:35.900Z,-1.71
2023-01-09T19:51:03.691Z,-1.74
2023-01-09T19:53:31.255Z,-1.76
2023-01-09T19:56:15.305Z,-1.63
2023-01-09T19:58:48.401Z,-1.53
2023-01-09T20:01:17.375Z,-1.55
2023-01-09T20:03:46.950Z,-1.58
2023-01-09T20:06:16.929Z,-1.63
2023-01-09T20:08:47.126Z,-1.66
2023-01-09T20:11:14.636Z,-1.68
2023-01-09T20:13:41.864Z,-1.69
2023-01-09T20:16:13.953Z,-1.72
2023-01-09T20:18:40.895Z,-1.74
2023-01-09T20:21:07.460Z,-1.67
2023-01-09T20:23:34.119Z,-1.58
2023-01-09T20:26:00.953Z,-1.57
2023-01-09T20:28:27.826Z,-1.62
2023-01-09T20:30:54.521Z,-1.64
2023-01-09T20:33:21.449Z,-1.69
2023-01-09T20:35:48.225Z,-1.74
2023-01-09T20:38:14.876Z,-1.75
2023-01-09T20:40:44.859Z,-1.78
2023-01-09T20:43:12.233Z,-1.80
2023-01-09T20:45:39.481Z,-1.81
2023-01-09T20:48:06.627Z,-1.82
2023-01-09T20:50:33.299Z,-1.85
2023-01-09T20:53:00.286Z,-1.88
2023-01-09T20:55:26.868Z,-1.91
2023-01-09T20:57:53.418Z,-1.94
2023-01-09T21:00:20.326Z,-1.96
2023-01-09T21:02:47.347Z,-1.98
2023-01-09T21:05:15.412Z,-2.00
2023-01-09T21:07:42.023Z,-2.01
2023-01-09T21:10:09.665Z,-2.00
2023-01-09T21:12:37.857Z,-2.01
2023-01-09T21:15:06.819Z,-2.03
2023-01-09T21:17:37.812Z,-2.04
2023-01-09T21:20:05.699Z,-2.06
2023-01-09T21:22:33.304Z,-2.07
2023-01-09T21:24:59.931Z,-2.08
2023-01-09T21:27:36.329Z,-2.08
2023-01-09T21:30:05.302Z,-2.09
2023-01-09T21:32:32.283Z,-2.10
2023-01-09T21:35:03.657Z,-2.11
2023-01-09T21:37:33.025Z,-2.12
2023-01-09T21:40:01.296Z,-2.13
2023-01-09T21:42:48.278Z,-2.15
2023-01-09T21:45:34.677Z,-2.15
2023-01-09T21:48:03.526Z,-2.17
2023-01-09T21:50:30.501Z,-2.18
2023-01-09T21:52:57.302Z,-2.18
2023-01-09T21:55:24.556Z,-2.19
2023-01-09T21:58:01.183Z,-2.20
2023-01-09T22:00:28.501Z,-2.23
2023-01-09T22:02:55.981Z,-2.23
2023-01-09T22:05:26.727Z,-2.22
2023-01-09T22:07:54.885Z,-2.23
2023-01-09T22:10:21.868Z,-2.24
2023-01-09T22:13:09.465Z,-2.25
2023-01-09T22:15:41.601Z,-2.28
2023-01-09T22:18:08.453Z,-2.27
2023-01-09T22:20:35.657Z,-2.28
2023-01-09T22:23:02.460Z,-2.29
2023-01-09T22:25:30.939Z,-2.32
2023-01-09T22:27:58.969Z,-2.34
2023-01-09T22:30:26.347Z,-2.36
2023-01-09T22:32:55.866Z,-2.40
2023-01-09T22:35:22.604Z,-2.41
2023-01-09T22:37:49.277Z,-2.42
2023-01-09T22:40:20.736Z,-2.43
2023-01-09T22:42:51.947Z,-2.46
2023-01-09T22:45:18.676Z,-2.48
2023-01-09T22:47:45.401Z,-2.50
2023-01-09T22:50:12.463Z,-2.54
2023-01-09T22:52:39.067Z,-2.58
2023-01-09T22:55:06.090Z,-2.61
2023-01-09T22:57:32.741Z,-2.62
2023-01-09T22:59:59.453Z,-2.63
2023-01-09T23:02:26.381Z,-2.63
2023-01-09T23:04:57.932Z,-2.65
2023-01-09T23:07:24.881Z,-2.66
2023-01-09T23:09:51.653Z,-2.68
2023-01-09T23:12:18.443Z,-2.70
2023-01-09T23:14:45.743Z,-2.71
2023-01-09T23:17:13.940Z,-2.71
2023-01-09T23:19:41.032Z,-2.72
2023-01-09T23:22:07.876Z,-2.73
2023-01-09T23:24:34.668Z,-2.73
2023-01-09T23:27:01.464Z,-2.76
2023-01-09T23:29:29.434Z,-2.76
2023-01-09T23:31:58.174Z,-2.77
2023-01-09T23:34:27.096Z,-2.77
2023-01-09T23:36:57.208Z,-2.77
2023-01-09T23:39:25.341Z,-2.77
2023-01-09T23:42:10.875Z,-2.77
2023-01-09T23:44:39.055Z,-2.79
2023-01-09T23:47:06.962Z,-2.80
2023-01-09T23:49:34.109Z,-2.79
2023-01-09T23:52:04.384Z,-2.81
2023-01-09T23:54:42.877Z,-2.81
2023-01-09T23:57:11.160Z,-2.83
2023-01-09T23:59:38.138Z,-2.84
